Terminal Aerodrome Forecast
Issued by NWS Austin/San Antonio, TX

Home | Current Version | Previous Version | Text Only | Print | Product List | Glossary On
Versions: 1 2 3 4 5 6 7 8 9 10 11 12 13 14 15 16 17 18
000
FTUS44 KEWX 021734
TAFDRT
TAF
KDRT 021734Z 0218/0318 12012G22KT P6SM SCT025 BKN035
     FM030200 12011KT P6SM BKN250
     FM030900 12009KT P6SM SCT020
     FM031100 12010G20KT P6SM BKN020
     FM031700 17015G25KT P6SM SCT040=

USA.gov is the U.S. government's official web portal to all federal, state and local government web resources and services.